sensor_id;sensor_type;location;lat;lon;timestamp;P1;durP1;ratioP1;P2;durP2;ratioP2
57085;SDS011;42964;42.910;23.792;2022-12-07T00:04:19;40.10;;;25.30;;
57085;SDS011;42964;42.910;23.792;2022-12-07T00:09:18;35.20;;;21.23;;
57085;SDS011;42964;42.910;23.792;2022-12-07T00:14:18;46.10;;;26.35;;
57085;SDS011;42964;42.910;23.792;2022-12-07T00:19:18;46.22;;;30.33;;
57085;SDS011;42964;42.910;23.792;2022-12-07T00:24:17;38.28;;;23.15;;
57085;SDS011;42964;42.910;23.792;2022-12-07T00:29:17;37.65;;;22.65;;
57085;SDS011;42964;42.910;23.792;2022-12-07T00:34:18;39.13;;;23.80;;
57085;SDS011;42964;42.910;23.792;2022-12-07T00:39:19;45.95;;;26.48;;
57085;SDS011;42964;42.910;23.792;2022-12-07T00:44:18;33.92;;;21.77;;
57085;SDS011;42964;42.910;23.792;2022-12-07T00:49:17;31.25;;;20.27;;
57085;SDS011;42964;42.910;23.792;2022-12-07T00:54:16;31.52;;;18.50;;
57085;SDS011;42964;42.910;23.792;2022-12-07T00:59:15;30.15;;;18.73;;
57085;SDS011;42964;42.910;23.792;2022-12-07T01:04:14;32.22;;;20.00;;
57085;SDS011;42964;42.910;23.792;2022-12-07T01:09:13;31.98;;;18.95;;
57085;SDS011;42964;42.910;23.792;2022-12-07T01:14:12;30.35;;;16.73;;
57085;SDS011;42964;42.910;23.792;2022-12-07T01:19:11;26.35;;;15.15;;
57085;SDS011;42964;42.910;23.792;2022-12-07T01:24:10;25.30;;;14.32;;
57085;SDS011;42964;42.910;23.792;2022-12-07T01:29:09;28.42;;;15.73;;
57085;SDS011;42964;42.910;23.792;2022-12-07T01:34:08;25.58;;;14.77;;
57085;SDS011;42964;42.910;23.792;2022-12-07T01:39:08;23.73;;;14.05;;
57085;SDS011;42964;42.910;23.792;2022-12-07T01:44:27;25.02;;;12.75;;
57085;SDS011;42964;42.910;23.792;2022-12-07T01:54:34;289.20;;;114.30;;
57085;SDS011;42964;42.910;23.792;2022-12-07T02:04:33;94.80;;;41.92;;
57085;SDS011;42964;42.910;23.792;2022-12-07T02:09:33;26.48;;;14.27;;
57085;SDS011;42964;42.910;23.792;2022-12-07T02:14:32;24.23;;;11.98;;
57085;SDS011;42964;42.910;23.792;2022-12-07T02:30:20;37.75;;;19.73;;
57085;SDS011;42964;42.910;23.792;2022-12-07T02:35:25;35.83;;;18.33;;
57085;SDS011;42964;42.910;23.792;2022-12-07T02:40:39;39.88;;;19.80;;
57085;SDS011;42964;42.910;23.792;2022-12-07T02:45:42;38.20;;;19.70;;
57085;SDS011;42964;42.910;23.792;2022-12-07T02:50:45;29.95;;;14.95;;
57085;SDS011;42964;42.910;23.792;2022-12-07T02:55:47;29.13;;;14.02;;
57085;SDS011;42964;42.910;23.792;2022-12-07T03:01:08;34.15;;;14.93;;
57085;SDS011;42964;42.910;23.792;2022-12-07T03:06:31;80.75;;;39.78;;
57085;SDS011;42964;42.910;23.792;2022-12-07T03:11:48;52.08;;;27.95;;
57085;SDS011;42964;42.910;23.792;2022-12-07T03:17:02;46.83;;;25.35;;
57085;SDS011;42964;42.910;23.792;2022-12-07T03:22:14;69.35;;;36.92;;
57085;SDS011;42964;42.910;23.792;2022-12-07T03:27:34;51.58;;;28.50;;
57085;SDS011;42964;42.910;23.792;2022-12-07T03:43:19;36.55;;;20.50;;
57085;SDS011;42964;42.910;23.792;2022-12-07T03:54:13;36.80;;;20.90;;
57085;SDS011;42964;42.910;23.792;2022-12-07T03:59:16;43.08;;;24.77;;
57085;SDS011;42964;42.910;23.792;2022-12-07T04:04:17;45.50;;;27.10;;
57085;SDS011;42964;42.910;23.792;2022-12-07T04:14:15;41.00;;;21.10;;
57085;SDS011;42964;42.910;23.792;2022-12-07T04:19:18;27.50;;;15.27;;
57085;SDS011;42964;42.910;23.792;2022-12-07T04:24:19;32.42;;;17.75;;
57085;SDS011;42964;42.910;23.792;2022-12-07T04:34:17;31.52;;;17.10;;
57085;SDS011;42964;42.910;23.792;2022-12-07T04:39:21;30.77;;;17.60;;
57085;SDS011;42964;42.910;23.792;2022-12-07T04:44:25;35.42;;;18.38;;
57085;SDS011;42964;42.910;23.792;2022-12-07T04:49:25;34.45;;;19.02;;
57085;SDS011;42964;42.910;23.792;2022-12-07T04:54:24;37.88;;;20.95;;
57085;SDS011;42964;42.910;23.792;2022-12-07T04:59:23;36.72;;;20.10;;
57085;SDS011;42964;42.910;23.792;2022-12-07T05:04:22;38.17;;;20.38;;
57085;SDS011;42964;42.910;23.792;2022-12-07T05:09:21;33.85;;;19.00;;
57085;SDS011;42964;42.910;23.792;2022-12-07T05:14:20;62.58;;;30.10;;
57085;SDS011;42964;42.910;23.792;2022-12-07T05:24:18;67.30;;;34.08;;
57085;SDS011;42964;42.910;23.792;2022-12-07T05:29:17;56.90;;;31.65;;
57085;SDS011;42964;42.910;23.792;2022-12-07T05:34:16;60.95;;;34.55;;
57085;SDS011;42964;42.910;23.792;2022-12-07T05:39:15;95.72;;;57.63;;
57085;SDS011;42964;42.910;23.792;2022-12-07T05:44:14;79.78;;;44.20;;
57085;SDS011;42964;42.910;23.792;2022-12-07T05:49:13;68.78;;;39.75;;
57085;SDS011;42964;42.910;23.792;2022-12-07T05:54:12;66.82;;;37.88;;
57085;SDS011;42964;42.910;23.792;2022-12-07T05:59:11;66.30;;;38.78;;
57085;SDS011;42964;42.910;23.792;2022-12-07T06:04:23;43.13;;;22.25;;
57085;SDS011;42964;42.910;23.792;2022-12-07T06:09:24;37.13;;;18.35;;
57085;SDS011;42964;42.910;23.792;2022-12-07T06:14:25;46.00;;;24.10;;
57085;SDS011;42964;42.910;23.792;2022-12-07T06:19:24;49.35;;;25.60;;
57085;SDS011;42964;42.910;23.792;2022-12-07T06:24:23;46.88;;;25.15;;
57085;SDS011;42964;42.910;23.792;2022-12-07T06:29:22;47.85;;;24.88;;
57085;SDS011;42964;42.910;23.792;2022-12-07T06:34:22;47.55;;;23.27;;
57085;SDS011;42964;42.910;23.792;2022-12-07T06:39:23;58.17;;;30.52;;
57085;SDS011;42964;42.910;23.792;2022-12-07T06:44:23;49.88;;;25.92;;
57085;SDS011;42964;42.910;23.792;2022-12-07T06:54:21;90.30;;;52.25;;
57085;SDS011;42964;42.910;23.792;2022-12-07T06:59:20;89.35;;;49.95;;
57085;SDS011;42964;42.910;23.792;2022-12-07T07:04:19;72.57;;;41.92;;
57085;SDS011;42964;42.910;23.792;2022-12-07T07:09:18;87.50;;;50.83;;
57085;SDS011;42964;42.910;23.792;2022-12-07T07:14:17;81.70;;;46.15;;
57085;SDS011;42964;42.910;23.792;2022-12-07T07:19:18;67.80;;;39.75;;
57085;SDS011;42964;42.910;23.792;2022-12-07T07:24:17;59.35;;;36.47;;
57085;SDS011;42964;42.910;23.792;2022-12-07T07:29:16;70.03;;;42.05;;
57085;SDS011;42964;42.910;23.792;2022-12-07T07:34:15;66.10;;;39.00;;
57085;SDS011;42964;42.910;23.792;2022-12-07T07:39:14;60.65;;;35.97;;
57085;SDS011;42964;42.910;23.792;2022-12-07T07:44:13;75.10;;;42.25;;
57085;SDS011;42964;42.910;23.792;2022-12-07T07:49:12;72.22;;;42.75;;
57085;SDS011;42964;42.910;23.792;2022-12-07T07:54:11;68.22;;;43.10;;
57085;SDS011;42964;42.910;23.792;2022-12-07T07:59:10;77.25;;;45.42;;
57085;SDS011;42964;42.910;23.792;2022-12-07T08:04:09;60.47;;;39.28;;
57085;SDS011;42964;42.910;23.792;2022-12-07T08:09:08;65.13;;;39.53;;
57085;SDS011;42964;42.910;23.792;2022-12-07T08:14:07;68.60;;;45.70;;
57085;SDS011;42964;42.910;23.792;2022-12-07T08:19:08;69.68;;;45.53;;
57085;SDS011;42964;42.910;23.792;2022-12-07T08:24:07;65.78;;;44.38;;
57085;SDS011;42964;42.910;23.792;2022-12-07T08:34:05;68.95;;;45.05;;
57085;SDS011;42964;42.910;23.792;2022-12-07T08:39:04;68.57;;;47.03;;
57085;SDS011;42964;42.910;23.792;2022-12-07T08:44:03;72.25;;;45.75;;
57085;SDS011;42964;42.910;23.792;2022-12-07T08:49:12;73.82;;;47.03;;
57085;SDS011;42964;42.910;23.792;2022-12-07T08:54:15;68.15;;;43.67;;
57085;SDS011;42964;42.910;23.792;2022-12-07T08:59:16;57.10;;;37.97;;
57085;SDS011;42964;42.910;23.792;2022-12-07T09:04:17;55.13;;;35.15;;
57085;SDS011;42964;42.910;23.792;2022-12-07T09:09:16;63.95;;;39.88;;
57085;SDS011;42964;42.910;23.792;2022-12-07T09:14:15;60.65;;;35.92;;
57085;SDS011;42964;42.910;23.792;2022-12-07T09:19:16;59.08;;;38.00;;
57085;SDS011;42964;42.910;23.792;2022-12-07T09:24:15;63.38;;;40.60;;
57085;SDS011;42964;42.910;23.792;2022-12-07T09:29:14;60.83;;;39.72;;
57085;SDS011;42964;42.910;23.792;2022-12-07T09:34:13;66.85;;;41.08;;
57085;SDS011;42964;42.910;23.792;2022-12-07T09:39:12;75.80;;;49.30;;
57085;SDS011;42964;42.910;23.792;2022-12-07T09:44:12;48.17;;;31.52;;
57085;SDS011;42964;42.910;23.792;2022-12-07T09:49:19;51.80;;;31.13;;
57085;SDS011;42964;42.910;23.792;2022-12-07T09:54:21;47.85;;;31.35;;
57085;SDS011;42964;42.910;23.792;2022-12-07T09:59:20;54.38;;;36.00;;
57085;SDS011;42964;42.910;23.792;2022-12-07T10:04:22;54.20;;;34.05;;
57085;SDS011;42964;42.910;23.792;2022-12-07T10:09:23;22.75;;;13.13;;
57085;SDS011;42964;42.910;23.792;2022-12-07T10:14:23;27.40;;;16.92;;
57085;SDS011;42964;42.910;23.792;2022-12-07T10:19:29;21.92;;;13.30;;
57085;SDS011;42964;42.910;23.792;2022-12-07T10:24:30;12.70;;;8.23;;
57085;SDS011;42964;42.910;23.792;2022-12-07T10:29:33;15.23;;;8.02;;
57085;SDS011;42964;42.910;23.792;2022-12-07T10:34:35;18.95;;;9.73;;
57085;SDS011;42964;42.910;23.792;2022-12-07T10:44:44;19.13;;;10.65;;
57085;SDS011;42964;42.910;23.792;2022-12-07T10:55:24;14.13;;;9.00;;
57085;SDS011;42964;42.910;23.792;2022-12-07T11:06:30;15.63;;;9.95;;
57085;SDS011;42964;42.910;23.792;2022-12-07T11:11:38;16.45;;;9.55;;
57085;SDS011;42964;42.910;23.792;2022-12-07T11:17:03;17.77;;;11.02;;
57085;SDS011;42964;42.910;23.792;2022-12-07T11:37:37;17.98;;;10.18;;
57085;SDS011;42964;42.910;23.792;2022-12-07T11:42:41;14.65;;;8.70;;
57085;SDS011;42964;42.910;23.792;2022-12-07T11:47:54;16.80;;;9.90;;
57085;SDS011;42964;42.910;23.792;2022-12-07T11:53:11;15.98;;;9.98;;
57085;SDS011;42964;42.910;23.792;2022-12-07T12:03:34;20.85;;;13.48;;
57085;SDS011;42964;42.910;23.792;2022-12-07T12:08:50;14.55;;;9.40;;
57085;SDS011;42964;42.910;23.792;2022-12-07T12:14:19;14.48;;;8.63;;
57085;SDS011;42964;42.910;23.792;2022-12-07T12:19:41;15.85;;;9.25;;
57085;SDS011;42964;42.910;23.792;2022-12-07T12:24:53;16.35;;;9.25;;
57085;SDS011;42964;42.910;23.792;2022-12-07T12:29:57;18.60;;;12.70;;
57085;SDS011;42964;42.910;23.792;2022-12-07T12:35:21;18.50;;;10.85;;
57085;SDS011;42964;42.910;23.792;2022-12-07T12:40:38;13.65;;;8.13;;
57085;SDS011;42964;42.910;23.792;2022-12-07T12:45:38;20.48;;;13.05;;
57085;SDS011;42964;42.910;23.792;2022-12-07T12:50:37;31.92;;;20.00;;
57085;SDS011;42964;42.910;23.792;2022-12-07T13:00:42;55.22;;;38.35;;
57085;SDS011;42964;42.910;23.792;2022-12-07T13:05:41;19.25;;;11.15;;
57085;SDS011;42964;42.910;23.792;2022-12-07T13:10:40;19.80;;;10.98;;
57085;SDS011;42964;42.910;23.792;2022-12-07T13:15:42;14.18;;;8.52;;
57085;SDS011;42964;42.910;23.792;2022-12-07T13:26:00;11.23;;;8.07;;
57085;SDS011;42964;42.910;23.792;2022-12-07T13:31:09;22.50;;;11.38;;
57085;SDS011;42964;42.910;23.792;2022-12-07T13:36:25;20.67;;;9.07;;
57085;SDS011;42964;42.910;23.792;2022-12-07T13:41:27;16.73;;;7.80;;
57085;SDS011;42964;42.910;23.792;2022-12-07T13:51:48;15.13;;;7.80;;
57085;SDS011;42964;42.910;23.792;2022-12-07T13:56:51;18.17;;;8.68;;
57085;SDS011;42964;42.910;23.792;2022-12-07T14:01:51;20.35;;;10.38;;
57085;SDS011;42964;42.910;23.792;2022-12-07T14:06:52;23.63;;;12.68;;
57085;SDS011;42964;42.910;23.792;2022-12-07T14:11:52;25.10;;;12.60;;
57085;SDS011;42964;42.910;23.792;2022-12-07T14:16:56;47.25;;;36.05;;
57085;SDS011;42964;42.910;23.792;2022-12-07T14:32:29;20.77;;;12.38;;
57085;SDS011;42964;42.910;23.792;2022-12-07T14:37:29;31.17;;;18.17;;
57085;SDS011;42964;42.910;23.792;2022-12-07T14:42:29;22.38;;;14.18;;
57085;SDS011;42964;42.910;23.792;2022-12-07T14:47:29;26.52;;;15.98;;
57085;SDS011;42964;42.910;23.792;2022-12-07T14:52:28;33.90;;;19.70;;
57085;SDS011;42964;42.910;23.792;2022-12-07T14:57:28;24.15;;;15.07;;
57085;SDS011;42964;42.910;23.792;2022-12-07T15:02:27;30.25;;;16.83;;
57085;SDS011;42964;42.910;23.792;2022-12-07T15:07:26;29.30;;;17.20;;
57085;SDS011;42964;42.910;23.792;2022-12-07T15:12:25;21.98;;;12.90;;
57085;SDS011;42964;42.910;23.792;2022-12-07T15:17:24;22.00;;;11.27;;
57085;SDS011;42964;42.910;23.792;2022-12-07T15:22:23;18.75;;;10.25;;
57085;SDS011;42964;42.910;23.792;2022-12-07T15:27:22;20.67;;;10.20;;
57085;SDS011;42964;42.910;23.792;2022-12-07T15:32:21;21.33;;;10.25;;
57085;SDS011;42964;42.910;23.792;2022-12-07T15:37:21;18.80;;;10.93;;
57085;SDS011;42964;42.910;23.792;2022-12-07T15:42:20;20.90;;;10.50;;
57085;SDS011;42964;42.910;23.792;2022-12-07T15:47:19;24.30;;;11.85;;
57085;SDS011;42964;42.910;23.792;2022-12-07T15:52:19;20.08;;;11.27;;
57085;SDS011;42964;42.910;23.792;2022-12-07T15:57:18;24.15;;;11.93;;
57085;SDS011;42964;42.910;23.792;2022-12-07T16:02:17;27.00;;;12.95;;
57085;SDS011;42964;42.910;23.792;2022-12-07T16:07:16;25.15;;;12.25;;
57085;SDS011;42964;42.910;23.792;2022-12-07T16:17:14;41.78;;;13.70;;
57085;SDS011;42964;42.910;23.792;2022-12-07T16:22:13;24.92;;;13.40;;
57085;SDS011;42964;42.910;23.792;2022-12-07T16:27:12;25.45;;;12.43;;
57085;SDS011;42964;42.910;23.792;2022-12-07T16:32:11;38.50;;;20.23;;
57085;SDS011;42964;42.910;23.792;2022-12-07T16:37:09;65.35;;;40.25;;
57085;SDS011;42964;42.910;23.792;2022-12-07T16:42:08;82.10;;;57.58;;
57085;SDS011;42964;42.910;23.792;2022-12-07T16:47:07;80.25;;;53.92;;
57085;SDS011;42964;42.910;23.792;2022-12-07T16:52:06;100.22;;;65.78;;
57085;SDS011;42964;42.910;23.792;2022-12-07T16:57:05;97.13;;;70.88;;
57085;SDS011;42964;42.910;23.792;2022-12-07T17:02:04;74.60;;;49.10;;
57085;SDS011;42964;42.910;23.792;2022-12-07T17:07:05;44.10;;;27.73;;
57085;SDS011;42964;42.910;23.792;2022-12-07T17:12:04;21.48;;;12.18;;
57085;SDS011;42964;42.910;23.792;2022-12-07T17:17:04;27.58;;;14.30;;
57085;SDS011;42964;42.910;23.792;2022-12-07T17:22:03;24.75;;;15.52;;
57085;SDS011;42964;42.910;23.792;2022-12-07T17:27:02;25.52;;;14.52;;
57085;SDS011;42964;42.910;23.792;2022-12-07T17:32:01;62.17;;;36.83;;
57085;SDS011;42964;42.910;23.792;2022-12-07T17:37:00;34.47;;;21.48;;
57085;SDS011;42964;42.910;23.792;2022-12-07T17:41:59;68.65;;;43.15;;
57085;SDS011;42964;42.910;23.792;2022-12-07T17:47:16;46.72;;;33.92;;
57085;SDS011;42964;42.910;23.792;2022-12-07T17:52:16;52.75;;;32.33;;
57085;SDS011;42964;42.910;23.792;2022-12-07T17:57:34;47.72;;;33.30;;
57085;SDS011;42964;42.910;23.792;2022-12-07T18:02:33;33.70;;;20.42;;
57085;SDS011;42964;42.910;23.792;2022-12-07T18:07:32;25.05;;;14.65;;
57085;SDS011;42964;42.910;23.792;2022-12-07T18:12:31;31.13;;;19.17;;
57085;SDS011;42964;42.910;23.792;2022-12-07T18:17:30;43.78;;;31.48;;
57085;SDS011;42964;42.910;23.792;2022-12-07T18:22:29;30.75;;;20.52;;
57085;SDS011;42964;42.910;23.792;2022-12-07T18:27:28;35.97;;;19.92;;
57085;SDS011;42964;42.910;23.792;2022-12-07T18:32:27;36.60;;;20.73;;
57085;SDS011;42964;42.910;23.792;2022-12-07T18:37:28;26.38;;;15.93;;
57085;SDS011;42964;42.910;23.792;2022-12-07T18:42:27;37.38;;;27.23;;
57085;SDS011;42964;42.910;23.792;2022-12-07T18:47:26;62.55;;;36.45;;
57085;SDS011;42964;42.910;23.792;2022-12-07T18:52:25;57.17;;;36.85;;
57085;SDS011;42964;42.910;23.792;2022-12-07T18:57:24;59.17;;;40.53;;
57085;SDS011;42964;42.910;23.792;2022-12-07T19:02:23;86.57;;;57.60;;
57085;SDS011;42964;42.910;23.792;2022-12-07T19:07:22;98.80;;;62.17;;
57085;SDS011;42964;42.910;23.792;2022-12-07T19:12:20;139.45;;;95.78;;
57085;SDS011;42964;42.910;23.792;2022-12-07T19:17:19;177.13;;;114.88;;
57085;SDS011;42964;42.910;23.792;2022-12-07T19:22:19;151.00;;;99.43;;
57085;SDS011;42964;42.910;23.792;2022-12-07T19:27:20;64.63;;;37.53;;
57085;SDS011;42964;42.910;23.792;2022-12-07T19:32:20;54.80;;;34.08;;
57085;SDS011;42964;42.910;23.792;2022-12-07T19:37:19;63.08;;;39.60;;
57085;SDS011;42964;42.910;23.792;2022-12-07T19:42:18;98.32;;;62.08;;
57085;SDS011;42964;42.910;23.792;2022-12-07T19:47:17;56.30;;;33.25;;
57085;SDS011;42964;42.910;23.792;2022-12-07T19:52:16;67.20;;;41.60;;
57085;SDS011;42964;42.910;23.792;2022-12-07T19:57:15;83.75;;;55.53;;
57085;SDS011;42964;42.910;23.792;2022-12-07T20:02:15;83.53;;;54.95;;
57085;SDS011;42964;42.910;23.792;2022-12-07T20:07:14;112.68;;;75.20;;
57085;SDS011;42964;42.910;23.792;2022-12-07T20:12:13;74.45;;;45.55;;
57085;SDS011;42964;42.910;23.792;2022-12-07T20:17:32;70.35;;;41.65;;
57085;SDS011;42964;42.910;23.792;2022-12-07T20:22:31;54.42;;;33.80;;
57085;SDS011;42964;42.910;23.792;2022-12-07T20:27:30;63.25;;;38.30;;
57085;SDS011;42964;42.910;23.792;2022-12-07T20:32:29;66.88;;;38.08;;
57085;SDS011;42964;42.910;23.792;2022-12-07T20:37:27;86.78;;;44.50;;
57085;SDS011;42964;42.910;23.792;2022-12-07T20:42:26;86.30;;;45.95;;
57085;SDS011;42964;42.910;23.792;2022-12-07T20:47:35;334.65;;;177.93;;
57085;SDS011;42964;42.910;23.792;2022-12-07T20:52:34;130.02;;;69.45;;
57085;SDS011;42964;42.910;23.792;2022-12-07T20:57:33;82.63;;;44.65;;
57085;SDS011;42964;42.910;23.792;2022-12-07T21:02:32;78.30;;;44.83;;
57085;SDS011;42964;42.910;23.792;2022-12-07T21:07:31;120.28;;;68.65;;
57085;SDS011;42964;42.910;23.792;2022-12-07T21:12:30;141.68;;;83.03;;
57085;SDS011;42964;42.910;23.792;2022-12-07T21:17:29;119.95;;;70.10;;
57085;SDS011;42964;42.910;23.792;2022-12-07T21:22:28;148.35;;;93.35;;
57085;SDS011;42964;42.910;23.792;2022-12-07T21:27:27;98.18;;;62.15;;
57085;SDS011;42964;42.910;23.792;2022-12-07T21:32:26;95.18;;;56.90;;
57085;SDS011;42964;42.910;23.792;2022-12-07T21:37:25;102.38;;;62.78;;
57085;SDS011;42964;42.910;23.792;2022-12-07T21:42:24;109.22;;;65.43;;
57085;SDS011;42964;42.910;23.792;2022-12-07T21:47:23;121.43;;;72.88;;
57085;SDS011;42964;42.910;23.792;2022-12-07T21:52:22;113.95;;;71.32;;
57085;SDS011;42964;42.910;23.792;2022-12-07T21:57:21;143.23;;;82.18;;
57085;SDS011;42964;42.910;23.792;2022-12-07T22:02:20;183.38;;;107.90;;
57085;SDS011;42964;42.910;23.792;2022-12-07T22:07:19;227.07;;;103.32;;
57085;SDS011;42964;42.910;23.792;2022-12-07T22:12:18;170.52;;;92.65;;
57085;SDS011;42964;42.910;23.792;2022-12-07T22:17:17;112.30;;;63.13;;
57085;SDS011;42964;42.910;23.792;2022-12-07T22:22:16;100.68;;;60.05;;
57085;SDS011;42964;42.910;23.792;2022-12-07T22:27:15;89.10;;;52.05;;
57085;SDS011;42964;42.910;23.792;2022-12-07T22:32:15;100.70;;;59.38;;
57085;SDS011;42964;42.910;23.792;2022-12-07T22:37:14;82.13;;;48.60;;
57085;SDS011;42964;42.910;23.792;2022-12-07T22:42:13;83.22;;;46.15;;
57085;SDS011;42964;42.910;23.792;2022-12-07T22:47:12;71.78;;;42.22;;
57085;SDS011;42964;42.910;23.792;2022-12-07T22:52:12;66.32;;;35.38;;
57085;SDS011;42964;42.910;23.792;2022-12-07T22:57:11;78.22;;;38.58;;
57085;SDS011;42964;42.910;23.792;2022-12-07T23:02:11;64.75;;;35.85;;
57085;SDS011;42964;42.910;23.792;2022-12-07T23:07:10;67.68;;;37.25;;
57085;SDS011;42964;42.910;23.792;2022-12-07T23:12:09;85.20;;;45.75;;
57085;SDS011;42964;42.910;23.792;2022-12-07T23:17:27;99.10;;;52.25;;
57085;SDS011;42964;42.910;23.792;2022-12-07T23:22:26;94.72;;;48.20;;
57085;SDS011;42964;42.910;23.792;2022-12-07T23:27:25;87.95;;;45.55;;
57085;SDS011;42964;42.910;23.792;2022-12-07T23:32:24;85.22;;;44.28;;
57085;SDS011;42964;42.910;23.792;2022-12-07T23:37:23;90.35;;;46.65;;
57085;SDS011;42964;42.910;23.792;2022-12-07T23:42:22;78.22;;;36.20;;
57085;SDS011;42964;42.910;23.792;2022-12-07T23:47:21;64.68;;;27.65;;
57085;SDS011;42964;42.910;23.792;2022-12-07T23:52:20;65.22;;;25.13;;
57085;SDS011;42964;42.910;23.792;2022-12-07T23:57:19;112.70;;;33.20;;
